< < Back
Terminal Aerodrome Forecast


Current Version              Previous Versions:   1  2  3  4  5  6  7  8  9  

Terminal Aerodrome Forecast

056
FTUS42 KILM 310522
TAFILM
TAF
KILM 310522Z 3106/0106 VRB05KT P6SM SCT250
     FM311600 21011G20KT P6SM FEW050 SCT250
     FM010000 23008KT P6SM SCT100 BKN250=

Latest METAR

332
SAUS70 KWBC 310800 RRJ
MTRILM
METAR KILM 310753Z 36003KT 10SM FEW060 09/08 A3001 RMK AO2 SLP163
T00940078


USA.gov is the U.S. government's official web portal to all federal, state and local government web resources and services.